»·PEaware :: N313N KSBA-KPSP

N313N :: KSBA-KPSP

FLIGHT INFORMATION

Flight Status: Arrived
Operator: Privately registered:
United States
More flights under this callsign
Pilot: Damien O. (2415)
Aircraft: GULFSTREAM G-1159C GULFSTREAM 4
(GLF4)
More flights by this aircraft type
Origin: KSBA Santa Barbara Mun
United States
Destination: KPSP Palm Springs Intl
United States
More flights between these airports :: More routes between these airports
Route: +KWANG5 HENER PMD V137 PSP
File this flight plan on PilotEdge
Remarks:
Altitude:
(Current/Filed)
230ft
Speed:
(Current/Filed)
330kts
Departed: 20-Apr-19 09:39 AM
Arrived: 20-Apr-19 10:15 AM
Distance/Time
Traveled:
169nm/0:36
Distance/Time
To Go:
Arrived

Flight Plot

Page will automatically refresh every two minutes.


Map Options




Map Legend


Flown Route
Filed Route
Departure Airport
Arrival Airport
Navaid (VOR, NDB)
Fix

Horizontal Profiles

Position Reports

Time Latitude Longitude Heading Altitude Ground
Speed
20-Apr-19 09:23 34.432411 -119.835633 70 21ft 0kts
20-Apr-19 09:24 34.432411 -119.835633 70 21ft 0kts
20-Apr-19 09:25 34.432411 -119.835633 70 21ft 0kts
20-Apr-19 09:26 34.432411 -119.835633 70 21ft 0kts
20-Apr-19 09:27 34.432411 -119.835633 70 21ft 0kts
20-Apr-19 09:28 34.432411 -119.835633 70 21ft 0kts
20-Apr-19 09:29 34.432411 -119.835633 70 21ft 0kts
20-Apr-19 09:30 34.432411 -119.835633 70 21ft 0kts
20-Apr-19 09:31 34.429943 -119.835348 178 21ft 23kts
20-Apr-19 09:32 34.426756 -119.836646 270 21ft 16kts
20-Apr-19 09:33 34.426602 -119.844077 266 21ft 25kts
20-Apr-19 09:34 34.426418 -119.853596 286 21ft 18kts
20-Apr-19 09:35 34.426611 -119.854014 314 21ft 0kts
20-Apr-19 09:36 34.426611 -119.854014 314 21ft 0kts
20-Apr-19 09:37 34.426619 -119.854023 314 21ft 2kts
20-Apr-19 09:38 34.428950 -119.824570 82 1188ft 183kts
20-Apr-19 09:39 34.406125 -119.759957 131 3215ft 236kts
20-Apr-19 09:40 34.376923 -119.706095 111 4883ft 244kts
20-Apr-19 09:41 34.360426 -119.652252 111 6268ft 252kts
20-Apr-19 09:42 34.342218 -119.591908 111 7763ft 262kts
20-Apr-19 09:43 34.323246 -119.529410 111 7995ft 265kts
20-Apr-19 09:44 34.317690 -119.458890 86 7932ft 299kts
20-Apr-19 09:45 34.321281 -119.383200 86 9282ft 298kts
20-Apr-19 09:46 34.324044 -119.316445 87 10570ft 416kts
20-Apr-19 09:47 34.330907 -119.202769 72 12190ft 428kts
20-Apr-19 09:48 34.357898 -119.094809 72 13747ft 442kts
20-Apr-19 09:49 34.386754 -118.979334 72 15350ft 455kts
20-Apr-19 09:50 34.417407 -118.856904 71 17003ft 469kts
20-Apr-19 09:51 34.452673 -118.716242 71 18849ft 484kts
20-Apr-19 09:52 34.490076 -118.566597 71 20758ft 501kts
20-Apr-19 09:53 34.530647 -118.403799 71 22768ft 520kts
20-Apr-19 09:54 34.572356 -118.236664 72 22899ft 523kts
20-Apr-19 09:55 34.621242 -118.036832 81 22903ft 525kts
20-Apr-19 09:56 34.567420 -117.839784 116 22960ft 522kts
20-Apr-19 09:57 34.474048 -117.656460 156 22991ft 500kts
20-Apr-19 09:58 34.336137 -117.526808 100 22022ft 480kts
20-Apr-19 09:59 34.312263 -117.360926 100 18446ft 405kts
20-Apr-19 10:00 34.251373 -117.234366 130 17031ft 403kts
20-Apr-19 10:01 34.182917 -117.116542 116 15036ft 391kts
20-Apr-19 10:02 34.138444 -117.002730 116 14162ft 348kts
20-Apr-19 10:03 34.094695 -116.892082 116 14155ft 355kts
20-Apr-19 10:04 34.047579 -116.773851 116 14090ft 356kts
20-Apr-19 10:05 33.986061 -116.656432 124 12790ft 320kts
20-Apr-19 10:06 33.928500 -116.552983 124 10399ft 303kts
20-Apr-19 10:07 33.882980 -116.472029 124 8635ft 267kts
20-Apr-19 10:08 33.845026 -116.404896 124 7997ft 244kts
20-Apr-19 10:09 33.806822 -116.337253 124 7982ft 245kts
20-Apr-19 10:10 33.760914 -116.330821 266 7007ft 187kts
20-Apr-19 10:11 33.781321 -116.388960 275 6073ft 200kts
20-Apr-19 10:12 33.785941 -116.453546 299 2514ft 179kts
20-Apr-19 10:13 33.811860 -116.491812 321 757ft 135kts
20-Apr-19 10:14 33.828835 -116.507130 279 485ft 12kts
20-Apr-19 10:15 33.828253 -116.509244 183 485ft 12kts
20-Apr-19 10:16 33.825803 -116.508750 114 485ft 0kts

Navigation Log

Ident Type
Flight plan parsing failed, navigation log unavailable